Silver Shadow — C6FN6 — position and weather

sailwx.info

Track history (hours):
 
Tides and Currents Weather Stations Pressure Air Temp Water Temp Dewpoint Dewpoint Depression Visibility Wind Speed Wind Dir Waves Ship Positions

Silver Shadow

Operator: V Ships Leisure SAM

Last reported at 2019-Jun-15 15:27 UTC. Time now 2019-Jun-15 22:56 UTC.
Position N 43°18' E 005°22'.

Length 186 m; draft 6.1 m.

Type: Passenger vessel. MMSI: 308628000.

Date/timePositionNaut miles runAvg speedWind from/ knotsBaromVisibWave heightAir tempDewpointWater temp
2019-Jun-15 15:27N 43°18' E 005°22'0 0.0
2019-Jun-15 14:57N 43°18' E 005°22'0 0.0
2019-Jun-15 14:27N 43°18' E 005°22'0 0.0
2019-Jun-15 13:57N 43°18' E 005°22'0 0.0
2019-Jun-15 13:30N 43°18' E 005°22'0 0.0
2019-Jun-15 12:57N 43°18' E 005°22'0 0.0
2019-Jun-15 12:30N 43°18' E 005°22'0 0.0
2019-Jun-15 11:57N 43°18' E 005°22'0 0.0
2019-Jun-15 11:27N 43°18' E 005°22'0 0.0
2019-Jun-15 10:57N 43°18' E 005°22'0 0.0
2019-Jun-15 10:27N 43°18' E 005°22'0 0.0
2019-Jun-15 09:54N 43°18' E 005°22'0 0.0
2019-Jun-15 09:27N 43°18' E 005°22'0 0.0
2019-Jun-15 08:57N 43°18' E 005°22'0 0.0
2019-Jun-15 08:30N 43°18' E 005°22'64 6.8
2019-Jun-14 23:04N 42°50' E 006°41'1813.1
2019-Jun-14 21:43N 42°48' E 007°05'313.1
2019-Jun-14 21:30N 42°48' E 007°09'613.1
2019-Jun-14 21:00N 42°47' E 007°18'713.0
2019-Jun-14 20:30N 42°46' E 007°27'713.3
2019-Jun-14 19:59N 42°45' E 007°36'812.9
2019-Jun-14 19:20N 42°44' E 007°47'2913.4
2019-Jun-14 17:08N 42°40' E 008°27'213.3
2019-Jun-14 16:59N 42°40' E 008°30'814.2
2019-Jun-14 16:25N 42°39' E 008°41'512.8
2019-Jun-14 16:00N 42°35' E 008°46'1 2.6
2019-Jun-14 15:27N 42°34' E 008°46'0 0.0
2019-Jun-14 14:57N 42°34' E 008°46'0 0.1
2019-Jun-14 14:30N 42°34' E 008°46'0 0.1
2019-Jun-14 14:00N 42°34' E 008°46'0 0.0
2019-Jun-14 13:27N 42°34' E 008°46'0 0.1
2019-Jun-14 12:51N 42°34' E 008°46'0 0.1
2019-Jun-14 12:30N 42°34' E 008°46'0 0.0
2019-Jun-14 11:42N 42°34' E 008°46'0 0.0
2019-Jun-14 11:24N 42°34' E 008°46'0 0.2
2019-Jun-14 11:00N 42°34' E 008°46'0 0.1
2019-Jun-14 10:24N 42°34' E 008°46'0 0.0
2019-Jun-14 09:57N 42°34' E 008°46'0 0.1
2019-Jun-14 09:30N 42°34' E 008°46'0 0.1
2019-Jun-14 09:00N 42°34' E 008°46'0 0.1
2019-Jun-14 08:30N 42°34' E 008°46'0 0.0
2019-Jun-14 08:00N 42°34' E 008°46'0 0.0
2019-Jun-14 07:30N 42°34' E 008°46'0 0.0
2019-Jun-14 07:00N 42°34' E 008°46'0 0.0
2019-Jun-14 06:27N 42°34' E 008°46'0 0.0
2019-Jun-14 06:00N 42°34' E 008°46'0 0.1
2019-Jun-14 05:30N 42°34' E 008°46'3 5.5
2019-Jun-14 05:00N 42°37' E 008°45'5 9.3
2019-Jun-14 04:30N 42°38' E 008°39'5 9.6
2019-Jun-14 04:00N 42°36' E 008°33'611.3
2019-Jun-14 03:30N 42°31' E 008°30'611.6
2019-Jun-14 03:00N 42°26' E 008°26'611.4
2019-Jun-14 02:30N 42°21' E 008°22'510.8
2019-Jun-14 02:00N 42°16' E 008°20'510.9
2019-Jun-14 01:30N 42°10' E 008°21'510.9
2019-Jun-14 01:00N 42°05' E 008°21'511.1
2019-Jun-14 00:30N 41°59' E 008°21'510.9
2019-Jun-14 00:00N 41°54' E 008°22'510.9
2019-Jun-13 23:30N 41°48' E 008°22'510.9
2019-Jun-13 23:00N 41°43' E 008°22'611.1
2019-Jun-13 22:30N 41°38' E 008°20'611.8
2019-Jun-13 22:00N 41°32' E 008°18'713.2
2019-Jun-13 21:30N 41°25' E 008°16'4112.6
2019-Jun-13 18:16N 40°46' E 008°04'1012.0
2019-Jun-13 17:25N 40°35' E 008°02'511.1
2019-Jun-13 16:56N 40°32' E 008°07'6 0.5
2019-Jun-13 03:53N 40°26' E 008°03'512.0
2019-Jun-13 03:27N 40°25' E 007°56'249 7.5
2019-Jun-11 18:04N 41°08' E 002°32'111.1
2019-Jun-11 17:57N 41°09' E 002°31'511.1
2019-Jun-11 17:31N 41°12' E 002°26'511.0
2019-Jun-11 17:01N 41°16' E 002°20'611.0
2019-Jun-11 16:30N 41°19' E 002°14'4 8.3
2019-Jun-11 16:00N 41°22' E 002°11'0 0.0
2019-Jun-11 06:21N 41°22' E 002°11'0 0.0
2019-Jun-10 17:09N 41°22' E 002°11'0 0.0
2019-Jun-10 13:12N 41°22' E 002°11'0 0.0
2019-Jun-10 10:27N 41°22' E 002°11'0 0.0
2019-Jun-10 02:54N 41°22' E 002°11'0 0.0
2019-Jun-10 02:12N 41°22' E 002°11'0 0.0
2019-Jun-09 16:06N 41°22' E 002°11'0 0.0
2019-Jun-09 15:48N 41°22' E 002°11'0 0.0
2019-Jun-09 05:19N 41°22' E 002°11'0 0.3
2019-Jun-09 05:00N 41°22' E 002°11'9 9.2
2019-Jun-09 04:00N 41°16' E 002°20'510.4
2019-Jun-09 03:30N 41°13' E 002°26'510.8
2019-Jun-09 03:00N 41°09' E 002°31'510.8
2019-Jun-09 02:30N 41°06' E 002°37'510.8
2019-Jun-09 02:00N 41°03' E 002°42'510.7
2019-Jun-09 01:30N 40°59' E 002°48'2010.7
2019-Jun-08 23:39N 40°47' E 003°08'210.9
2019-Jun-08 23:30N 40°46' E 003°10'611.0
2019-Jun-08 22:55N 40°42' E 003°17'511.0
2019-Jun-08 22:31N 40°39' E 003°21'510.8
2019-Jun-08 22:00N 40°35' E 003°27'510.8
2019-Jun-08 21:30N 40°32' E 003°32'510.9
2019-Jun-08 21:00N 40°28' E 003°37'510.9
2019-Jun-08 20:30N 40°25' E 003°43'510.9
2019-Jun-08 20:00N 40°22' E 003°49'56 3.1
2019-Jun-08 01:59N 39°26' E 003°41'715.3
2019-Jun-08 01:30N 39°22' E 003°33'1715.1
2019-Jun-08 00:24N 39°13' E 003°16'615.5
2019-Jun-08 00:00N 39°10' E 003°09'815.5
2019-Jun-07 23:30N 39°05' E 003°01'612.6
2019-Jun-07 23:00N 39°06' E 002°53'815.5
2019-Jun-07 22:30N 39°13' E 002°48'815.4
2019-Jun-07 22:00N 39°19' E 002°43'815.3
2019-Jun-07 21:30N 39°26' E 002°39'714.1
2019-Jun-07 21:00N 39°33' E 002°38'0 0.7
2019-Jun-07 20:30N 39°33' E 002°38'0 0.0
2019-Jun-07 20:00N 39°33' E 002°38'0 0.0
2019-Jun-07 19:30N 39°33' E 002°38'0 0.0
2019-Jun-07 19:00N 39°33' E 002°38'0 0.0
2019-Jun-07 18:30N 39°33' E 002°38'0 0.0
2019-Jun-07 18:00N 39°33' E 002°38'0 0.0
2019-Jun-07 17:30N 39°33' E 002°38'0 0.0
2019-Jun-07 17:00N 39°33' E 002°38'0 0.0
2019-Jun-07 16:30N 39°33' E 002°38'0 0.0
2019-Jun-07 16:00N 39°33' E 002°38'0 0.0
2019-Jun-07 15:30N 39°33' E 002°38'0 0.0
2019-Jun-07 15:00N 39°33' E 002°38'0 0.0
2019-Jun-07 14:30N 39°33' E 002°38'0 0.0
2019-Jun-07 13:57N 39°33' E 002°38'0 0.0
2019-Jun-07 13:30N 39°33' E 002°38'0 0.0
2019-Jun-07 13:00N 39°33' E 002°38'0 0.0
2019-Jun-07 12:30N 39°33' E 002°38'0 0.0
2019-Jun-07 12:00N 39°33' E 002°38'0 0.0
2019-Jun-07 11:30N 39°33' E 002°38'0 0.0
2019-Jun-07 11:00N 39°33' E 002°38'0 0.0
2019-Jun-07 10:30N 39°33' E 002°38'0 0.0
2019-Jun-07 10:00N 39°33' E 002°38'0 0.0
2019-Jun-07 09:30N 39°33' E 002°38'0 0.0
2019-Jun-07 09:00N 39°33' E 002°38'0 0.0
2019-Jun-07 08:30N 39°33' E 002°38'0 0.0
2019-Jun-07 08:00N 39°33' E 002°38'0 0.0
2019-Jun-07 07:30N 39°33' E 002°38'0 0.0
2019-Jun-07 07:00N 39°33' E 002°38'0 0.0
2019-Jun-07 06:30N 39°33' E 002°38'0 0.0
2019-Jun-07 06:00N 39°33' E 002°38'0 0.0
2019-Jun-07 05:30N 39°33' E 002°38'0 0.9
2019-Jun-07 05:00N 39°33' E 002°39'4 8.7
2019-Jun-07 04:30N 39°29' E 002°37'510.6
2019-Jun-07 04:00N 39°25' E 002°33'712.9
2019-Jun-07 03:28N 39°25' E 002°24'11412.6
2019-Jun-06 18:24N 39°25' W 000°03'712.8
2019-Jun-06 17:53N 39°25' W 000°12'512.6
2019-Jun-06 17:29N 39°26' W 000°18'2 0.8
2019-Jun-06 15:22N 39°27' W 000°20'0 0.0
2019-Jun-06 14:22N 39°27' W 000°20'0 0.0
2019-Jun-06 12:52N 39°27' W 000°20'0 0.0
2019-Jun-06 12:04N 39°27' W 000°20'0 0.0
2019-Jun-06 11:58N 39°27' W 000°20'0 0.0
2019-Jun-06 11:28N 39°27' W 000°20'0 0.0
2019-Jun-06 10:58N 39°27' W 000°20'0 0.0
2019-Jun-06 10:28N 39°27' W 000°20'0 0.0
2019-Jun-06 09:52N 39°27' W 000°20'0 0.0
2019-Jun-06 09:28N 39°27' W 000°20'0 0.0
2019-Jun-06 08:58N 39°27' W 000°20'0 0.0
2019-Jun-06 08:28N 39°27' W 000°20'0 0.0
2019-Jun-06 07:58N 39°27' W 000°20'0 0.0
2019-Jun-06 07:28N 39°27' W 000°20'0 0.0
2019-Jun-06 06:58N 39°27' W 000°20'0 0.0
2019-Jun-06 06:15N 39°27' W 000°20'0 0.6
2019-Jun-06 06:01N 39°27' W 000°19'  
Track history (hours):
 
Tides and Currents Weather Stations Pressure Air Temp Water Temp Dewpoint Dewpoint Depression Visibility Wind Speed Wind Dir Waves Ship Positions

Silver Shadow

Operator: V Ships Leisure SAM

Last reported at 2019-Jun-15 15:27 UTC. Time now 2019-Jun-15 22:56 UTC.
Position N 43°18' E 005°22'.

Length 186 m; draft 6.1 m.

Type: Passenger vessel. MMSI: 308628000.

Date/timePositionNaut miles runAvg speedWind from/ knotsBaromVisibWave heightAir tempDewpointWater temp
2019-Jun-15 15:27N 43°18' E 005°22'0 0.0
2019-Jun-15 14:57N 43°18' E 005°22'0 0.0
2019-Jun-15 14:27N 43°18' E 005°22'0 0.0
2019-Jun-15 13:57N 43°18' E 005°22'0 0.0
2019-Jun-15 13:30N 43°18' E 005°22'0 0.0
2019-Jun-15 12:57N 43°18' E 005°22'0 0.0
2019-Jun-15 12:30N 43°18' E 005°22'0 0.0
2019-Jun-15 11:57N 43°18' E 005°22'0 0.0
2019-Jun-15 11:27N 43°18' E 005°22'0 0.0
2019-Jun-15 10:57N 43°18' E 005°22'0 0.0
2019-Jun-15 10:27N 43°18' E 005°22'0 0.0
2019-Jun-15 09:54N 43°18' E 005°22'0 0.0
2019-Jun-15 09:27N 43°18' E 005°22'0 0.0
2019-Jun-15 08:57N 43°18' E 005°22'0 0.0
2019-Jun-15 08:30N 43°18' E 005°22'64 6.8
2019-Jun-14 23:04N 42°50' E 006°41'1813.1
2019-Jun-14 21:43N 42°48' E 007°05'313.1
2019-Jun-14 21:30N 42°48' E 007°09'613.1
2019-Jun-14 21:00N 42°47' E 007°18'713.0
2019-Jun-14 20:30N 42°46' E 007°27'713.3
2019-Jun-14 19:59N 42°45' E 007°36'812.9
2019-Jun-14 19:20N 42°44' E 007°47'2913.4
2019-Jun-14 17:08N 42°40' E 008°27'213.3
2019-Jun-14 16:59N 42°40' E 008°30'814.2
2019-Jun-14 16:25N 42°39' E 008°41'512.8
2019-Jun-14 16:00N 42°35' E 008°46'1 2.6
2019-Jun-14 15:27N 42°34' E 008°46'0 0.0
2019-Jun-14 14:57N 42°34' E 008°46'0 0.1
2019-Jun-14 14:30N 42°34' E 008°46'0 0.1
2019-Jun-14 14:00N 42°34' E 008°46'0 0.0
2019-Jun-14 13:27N 42°34' E 008°46'0 0.1
2019-Jun-14 12:51N 42°34' E 008°46'0 0.1
2019-Jun-14 12:30N 42°34' E 008°46'0 0.0
2019-Jun-14 11:42N 42°34' E 008°46'0 0.0
2019-Jun-14 11:24N 42°34' E 008°46'0 0.2
2019-Jun-14 11:00N 42°34' E 008°46'0 0.1
2019-Jun-14 10:24N 42°34' E 008°46'0 0.0
2019-Jun-14 09:57N 42°34' E 008°46'0 0.1
2019-Jun-14 09:30N 42°34' E 008°46'0 0.1
2019-Jun-14 09:00N 42°34' E 008°46'0 0.1
2019-Jun-14 08:30N 42°34' E 008°46'0 0.0
2019-Jun-14 08:00N 42°34' E 008°46'0 0.0
2019-Jun-14 07:30N 42°34' E 008°46'0 0.0
2019-Jun-14 07:00N 42°34' E 008°46'0 0.0
2019-Jun-14 06:27N 42°34' E 008°46'0 0.0
2019-Jun-14 06:00N 42°34' E 008°46'0 0.1
2019-Jun-14 05:30N 42°34' E 008°46'3 5.5
2019-Jun-14 05:00N 42°37' E 008°45'5 9.3
2019-Jun-14 04:30N 42°38' E 008°39'5 9.6
2019-Jun-14 04:00N 42°36' E 008°33'611.3
2019-Jun-14 03:30N 42°31' E 008°30'611.6
2019-Jun-14 03:00N 42°26' E 008°26'611.4
2019-Jun-14 02:30N 42°21' E 008°22'510.8
2019-Jun-14 02:00N 42°16' E 008°20'510.9
2019-Jun-14 01:30N 42°10' E 008°21'510.9
2019-Jun-14 01:00N 42°05' E 008°21'511.1
2019-Jun-14 00:30N 41°59' E 008°21'510.9
2019-Jun-14 00:00N 41°54' E 008°22'510.9
2019-Jun-13 23:30N 41°48' E 008°22'510.9
2019-Jun-13 23:00N 41°43' E 008°22'611.1
2019-Jun-13 22:30N 41°38' E 008°20'611.8
2019-Jun-13 22:00N 41°32' E 008°18'713.2
2019-Jun-13 21:30N 41°25' E 008°16'4112.6
2019-Jun-13 18:16N 40°46' E 008°04'1012.0
2019-Jun-13 17:25N 40°35' E 008°02'511.1
2019-Jun-13 16:56N 40°32' E 008°07'6 0.5
2019-Jun-13 03:53N 40°26' E 008°03'512.0
2019-Jun-13 03:27N 40°25' E 007°56'249 7.5
2019-Jun-11 18:04N 41°08' E 002°32'111.1
2019-Jun-11 17:57N 41°09' E 002°31'511.1
2019-Jun-11 17:31N 41°12' E 002°26'511.0
2019-Jun-11 17:01N 41°16' E 002°20'611.0
2019-Jun-11 16:30N 41°19' E 002°14'4 8.3
2019-Jun-11 16:00N 41°22' E 002°11'0 0.0
2019-Jun-11 06:21N 41°22' E 002°11'0 0.0
2019-Jun-10 17:09N 41°22' E 002°11'0 0.0
2019-Jun-10 13:12N 41°22' E 002°11'0 0.0
2019-Jun-10 10:27N 41°22' E 002°11'0 0.0
2019-Jun-10 02:54N 41°22' E 002°11'0 0.0
2019-Jun-10 02:12N 41°22' E 002°11'0 0.0
2019-Jun-09 16:06N 41°22' E 002°11'0 0.0
2019-Jun-09 15:48N 41°22' E 002°11'0 0.0
2019-Jun-09 05:19N 41°22' E 002°11'0 0.3
2019-Jun-09 05:00N 41°22' E 002°11'9 9.2
2019-Jun-09 04:00N 41°16' E 002°20'510.4
2019-Jun-09 03:30N 41°13' E 002°26'510.8
2019-Jun-09 03:00N 41°09' E 002°31'510.8
2019-Jun-09 02:30N 41°06' E 002°37'510.8
2019-Jun-09 02:00N 41°03' E 002°42'510.7
2019-Jun-09 01:30N 40°59' E 002°48'2010.7
2019-Jun-08 23:39N 40°47' E 003°08'210.9
2019-Jun-08 23:30N 40°46' E 003°10'611.0
2019-Jun-08 22:55N 40°42' E 003°17'511.0
2019-Jun-08 22:31N 40°39' E 003°21'510.8
2019-Jun-08 22:00N 40°35' E 003°27'510.8
2019-Jun-08 21:30N 40°32' E 003°32'510.9
2019-Jun-08 21:00N 40°28' E 003°37'510.9
2019-Jun-08 20:30N 40°25' E 003°43'510.9
2019-Jun-08 20:00N 40°22' E 003°49'56 3.1
2019-Jun-08 01:59N 39°26' E 003°41'715.3
2019-Jun-08 01:30N 39°22' E 003°33'1715.1
2019-Jun-08 00:24N 39°13' E 003°16'615.5
2019-Jun-08 00:00N 39°10' E 003°09'815.5
2019-Jun-07 23:30N 39°05' E 003°01'612.6
2019-Jun-07 23:00N 39°06' E 002°53'815.5
2019-Jun-07 22:30N 39°13' E 002°48'815.4
2019-Jun-07 22:00N 39°19' E 002°43'815.3
2019-Jun-07 21:30N 39°26' E 002°39'714.1
2019-Jun-07 21:00N 39°33' E 002°38'0 0.7
2019-Jun-07 20:30N 39°33' E 002°38'0 0.0
2019-Jun-07 20:00N 39°33' E 002°38'0 0.0
2019-Jun-07 19:30N 39°33' E 002°38'0 0.0
2019-Jun-07 19:00N 39°33' E 002°38'0 0.0
2019-Jun-07 18:30N 39°33' E 002°38'0 0.0
2019-Jun-07 18:00N 39°33' E 002°38'0 0.0
2019-Jun-07 17:30N 39°33' E 002°38'0 0.0
2019-Jun-07 17:00N 39°33' E 002°38'0 0.0
2019-Jun-07 16:30N 39°33' E 002°38'0 0.0
2019-Jun-07 16:00N 39°33' E 002°38'0 0.0
2019-Jun-07 15:30N 39°33' E 002°38'0 0.0
2019-Jun-07 15:00N 39°33' E 002°38'0 0.0
2019-Jun-07 14:30N 39°33' E 002°38'0 0.0
2019-Jun-07 13:57N 39°33' E 002°38'0 0.0
2019-Jun-07 13:30N 39°33' E 002°38'0 0.0
2019-Jun-07 13:00N 39°33' E 002°38'0 0.0
2019-Jun-07 12:30N 39°33' E 002°38'0 0.0
2019-Jun-07 12:00N 39°33' E 002°38'0 0.0
2019-Jun-07 11:30N 39°33' E 002°38'0 0.0
2019-Jun-07 11:00N 39°33' E 002°38'0 0.0
2019-Jun-07 10:30N 39°33' E 002°38'0 0.0
2019-Jun-07 10:00N 39°33' E 002°38'0 0.0
2019-Jun-07 09:30N 39°33' E 002°38'0 0.0
2019-Jun-07 09:00N 39°33' E 002°38'0 0.0
2019-Jun-07 08:30N 39°33' E 002°38'0 0.0
2019-Jun-07 08:00N 39°33' E 002°38'0 0.0
2019-Jun-07 07:30N 39°33' E 002°38'0 0.0
2019-Jun-07 07:00N 39°33' E 002°38'0 0.0
2019-Jun-07 06:30N 39°33' E 002°38'0 0.0
2019-Jun-07 06:00N 39°33' E 002°38'0 0.0
2019-Jun-07 05:30N 39°33' E 002°38'0 0.9
2019-Jun-07 05:00N 39°33' E 002°39'4 8.7
2019-Jun-07 04:30N 39°29' E 002°37'510.6
2019-Jun-07 04:00N 39°25' E 002°33'712.9
2019-Jun-07 03:28N 39°25' E 002°24'11412.6
2019-Jun-06 18:24N 39°25' W 000°03'712.8
2019-Jun-06 17:53N 39°25' W 000°12'512.6
2019-Jun-06 17:29N 39°26' W 000°18'2 0.8
2019-Jun-06 15:22N 39°27' W 000°20'0 0.0
2019-Jun-06 14:22N 39°27' W 000°20'0 0.0
2019-Jun-06 12:52N 39°27' W 000°20'0 0.0
2019-Jun-06 12:04N 39°27' W 000°20'0 0.0
2019-Jun-06 11:58N 39°27' W 000°20'0 0.0
2019-Jun-06 11:28N 39°27' W 000°20'0 0.0
2019-Jun-06 10:58N 39°27' W 000°20'0 0.0
2019-Jun-06 10:28N 39°27' W 000°20'0 0.0
2019-Jun-06 09:52N 39°27' W 000°20'0 0.0
2019-Jun-06 09:28N 39°27' W 000°20'0 0.0
2019-Jun-06 08:58N 39°27' W 000°20'0 0.0
2019-Jun-06 08:28N 39°27' W 000°20'0 0.0
2019-Jun-06 07:58N 39°27' W 000°20'0 0.0
2019-Jun-06 07:28N 39°27' W 000°20'0 0.0
2019-Jun-06 06:58N 39°27' W 000°20'0 0.0
2019-Jun-06 06:15N 39°27' W 000°20'0 0.6
2019-Jun-06 06:01N 39°27' W 000°19'  

Dump ship's entire track history